sensor_id;sensor_type;location;lat;lon;timestamp;pressure;altitude;pressure_sealevel;temperature;humidity
73429;BME280;61643;49.564;17.412;2024-03-02T00:02:25;97382.81;;;9.24;100.00
73429;BME280;61643;49.564;17.412;2024-03-02T00:04:51;97382.03;;;9.28;100.00
73429;BME280;61643;49.564;17.412;2024-03-02T00:07:17;97374.22;;;9.32;100.00
73429;BME280;61643;49.564;17.412;2024-03-02T00:09:44;97382.03;;;9.44;100.00
73429;BME280;61643;49.564;17.412;2024-03-02T00:12:14;97383.88;;;9.53;100.00
73429;BME280;61643;49.564;17.412;2024-03-02T00:14:41;97383.34;;;9.56;100.00
73429;BME280;61643;49.564;17.412;2024-03-02T00:17:15;97375.53;;;9.60;100.00
73429;BME280;61643;49.564;17.412;2024-03-02T00:19:44;97375.00;;;9.63;100.00
73429;BME280;61643;49.564;17.412;2024-03-02T00:22:11;97375.53;;;9.60;100.00
73429;BME280;61643;49.564;17.412;2024-03-02T00:24:39;97373.66;;;9.55;100.00
73429;BME280;61643;49.564;17.412;2024-03-02T00:27:07;97373.13;;;9.53;100.00
73429;BME280;61643;49.564;17.412;2024-03-02T00:29:34;97372.88;;;9.55;100.00
73429;BME280;61643;49.564;17.412;2024-03-02T00:32:01;97372.59;;;9.56;100.00
73429;BME280;61643;49.564;17.412;2024-03-02T00:34:27;97366.69;;;9.54;100.00
73429;BME280;61643;49.564;17.412;2024-03-02T00:36:53;97368.56;;;9.59;100.00
73429;BME280;61643;49.564;17.412;2024-03-02T00:39:19;97377.13;;;9.66;100.00
73429;BME280;61643;49.564;17.412;2024-03-02T00:41:45;97359.72;;;9.58;100.00
73429;BME280;61643;49.564;17.412;2024-03-02T00:44:12;97370.16;;;9.75;100.00
73429;BME280;61643;49.564;17.412;2024-03-02T00:46:39;97369.91;;;9.76;100.00
73429;BME280;61643;49.564;17.412;2024-03-02T00:49:17;97359.94;;;9.77;100.00
73429;BME280;61643;49.564;17.412;2024-03-02T00:51:47;97356.47;;;9.71;100.00
73429;BME280;61643;49.564;17.412;2024-03-02T00:54:23;97372.84;;;9.80;100.00
73429;BME280;61643;49.564;17.412;2024-03-02T00:56:50;97374.47;;;9.76;100.00
73429;BME280;61643;49.564;17.412;2024-03-02T00:59:16;97367.47;;;9.75;100.00
73429;BME280;61643;49.564;17.412;2024-03-02T01:01:42;97379.03;;;9.70;100.00
73429;BME280;61643;49.564;17.412;2024-03-02T01:04:09;97365.06;;;9.68;100.00
73429;BME280;61643;49.564;17.412;2024-03-02T01:06:35;97371.50;;;9.72;100.00
73429;BME280;61643;49.564;17.412;2024-03-02T01:09:02;97372.03;;;9.74;100.00
73429;BME280;61643;49.564;17.412;2024-03-02T01:11:29;97358.06;;;9.72;100.00
73429;BME280;61643;49.564;17.412;2024-03-02T01:13:55;97363.72;;;9.76;100.00
73429;BME280;61643;49.564;17.412;2024-03-02T01:16:21;97369.63;;;9.73;100.00
73429;BME280;61643;49.564;17.412;2024-03-02T01:18:48;97366.69;;;9.69;100.00
73429;BME280;61643;49.564;17.412;2024-03-02T01:21:14;97357.28;;;9.62;100.00
73429;BME280;61643;49.564;17.412;2024-03-02T01:23:40;97364.00;;;9.64;100.00
73429;BME280;61643;49.564;17.412;2024-03-02T01:26:06;97356.19;;;9.63;100.00
73429;BME280;61643;49.564;17.412;2024-03-02T01:28:33;97350.84;;;9.58;100.00
73429;BME280;61643;49.564;17.412;2024-03-02T01:30:59;97347.34;;;9.57;100.00
73429;BME280;61643;49.564;17.412;2024-03-02T01:33:25;97347.06;;;9.59;100.00
73429;BME280;61643;49.564;17.412;2024-03-02T01:35:51;97334.47;;;9.49;100.00
73429;BME280;61643;49.564;17.412;2024-03-02T01:38:16;97342.53;;;9.49;100.00
73429;BME280;61643;49.564;17.412;2024-03-02T01:40:43;97340.63;;;9.45;100.00
73429;BME280;61643;49.564;17.412;2024-03-02T01:43:10;97348.44;;;9.46;100.00
73429;BME280;61643;49.564;17.412;2024-03-02T01:45:36;97339.03;;;9.38;100.00
73429;BME280;61643;49.564;17.412;2024-03-02T01:48:06;97346.03;;;9.34;100.00
73429;BME280;61643;49.564;17.412;2024-03-02T01:50:33;97344.97;;;9.25;100.00
73429;BME280;61643;49.564;17.412;2024-03-02T01:53:00;97344.16;;;9.20;100.00
73429;BME280;61643;49.564;17.412;2024-03-02T01:55:28;97336.66;;;9.07;100.00
73429;BME280;61643;49.564;17.412;2024-03-02T01:57:56;97347.91;;;9.04;100.00
73429;BME280;61643;49.564;17.412;2024-03-02T02:00:22;97336.91;;;8.95;100.00
73429;BME280;61643;49.564;17.412;2024-03-02T02:02:50;97348.44;;;8.90;100.00
73429;BME280;61643;49.564;17.412;2024-03-02T02:05:16;97329.13;;;8.78;100.00
73429;BME280;61643;49.564;17.412;2024-03-02T02:07:42;97322.91;;;8.73;100.00
73429;BME280;61643;49.564;17.412;2024-03-02T02:10:09;97315.38;;;8.65;100.00
73429;BME280;61643;49.564;17.412;2024-03-02T02:12:35;97326.13;;;8.65;100.00
73429;BME280;61643;49.564;17.412;2024-03-02T02:15:03;97315.66;;;8.58;100.00
73429;BME280;61643;49.564;17.412;2024-03-02T02:17:29;97320.50;;;8.56;100.00
73429;BME280;61643;49.564;17.412;2024-03-02T02:19:55;97320.22;;;8.58;100.00
73429;BME280;61643;49.564;17.412;2024-03-02T02:22:20;97322.63;;;8.54;100.00
73429;BME280;61643;49.564;17.412;2024-03-02T02:24:46;97315.13;;;8.46;100.00
73429;BME280;61643;49.564;17.412;2024-03-02T02:27:12;97323.16;;;8.46;100.00
73429;BME280;61643;49.564;17.412;2024-03-02T02:29:41;97316.72;;;8.42;100.00
73429;BME280;61643;49.564;17.412;2024-03-02T02:32:07;97320.19;;;8.37;100.00
73429;BME280;61643;49.564;17.412;2024-03-02T02:34:33;97306.16;;;8.25;100.00
73429;BME280;61643;49.564;17.412;2024-03-02T02:36:59;97315.78;;;8.21;100.00
73429;BME280;61643;49.564;17.412;2024-03-02T02:39:26;97325.44;;;8.17;100.00
73429;BME280;61643;49.564;17.412;2024-03-02T02:41:52;97318.16;;;8.08;100.00
73429;BME280;61643;49.564;17.412;2024-03-02T02:44:18;97319.22;;;8.07;100.00
73429;BME280;61643;49.564;17.412;2024-03-02T02:46:44;97317.88;;;7.99;100.00
73429;BME280;61643;49.564;17.412;2024-03-02T02:49:11;97322.44;;;7.99;100.00
73429;BME280;61643;49.564;17.412;2024-03-02T02:51:37;97312.75;;;7.92;100.00
73429;BME280;61643;49.564;17.412;2024-03-02T02:54:03;97315.94;;;7.89;100.00
73429;BME280;61643;49.564;17.412;2024-03-02T02:56:29;97314.84;;;7.85;100.00
73429;BME280;61643;49.564;17.412;2024-03-02T02:58:55;97309.19;;;7.77;100.00
73429;BME280;61643;49.564;17.412;2024-03-02T03:01:21;97314.53;;;7.72;100.00
73429;BME280;61643;49.564;17.412;2024-03-02T03:03:47;97309.94;;;7.67;100.00
73429;BME280;61643;49.564;17.412;2024-03-02T03:06:13;97315.28;;;7.62;100.00
73429;BME280;61643;49.564;17.412;2024-03-02T03:08:39;97304.25;;;7.49;100.00
73429;BME280;61643;49.564;17.412;2024-03-02T03:11:05;97313.31;;;7.48;100.00
73429;BME280;61643;49.564;17.412;2024-03-02T03:13:32;97308.78;;;7.48;100.00
73429;BME280;61643;49.564;17.412;2024-03-02T03:15:58;97304.44;;;7.42;100.00
73429;BME280;61643;49.564;17.412;2024-03-02T03:18:24;97316.53;;;7.50;100.00
73429;BME280;61643;49.564;17.412;2024-03-02T03:20:50;97311.47;;;7.48;100.00
73429;BME280;61643;49.564;17.412;2024-03-02T03:23:16;97306.09;;;7.48;100.00
73429;BME280;61643;49.564;17.412;2024-03-02T03:25:43;97315.47;;;7.51;100.00
73429;BME280;61643;49.564;17.412;2024-03-02T03:28:09;97309.84;;;7.47;100.00
73429;BME280;61643;49.564;17.412;2024-03-02T03:30:39;97310.31;;;7.39;100.00
73429;BME280;61643;49.564;17.412;2024-03-02T03:33:05;97302.84;;;7.41;100.00
73429;BME280;61643;49.564;17.412;2024-03-02T03:35:35;97323.00;;;7.54;100.00
73429;BME280;61643;49.564;17.412;2024-03-02T03:38:02;97310.97;;;7.61;100.00
73429;BME280;61643;49.564;17.412;2024-03-02T03:40:28;97309.72;;;7.79;100.00
73429;BME280;61643;49.564;17.412;2024-03-02T03:42:54;97307.63;;;7.86;100.00
73429;BME280;61643;49.564;17.412;2024-03-02T03:45:21;97309.03;;;7.99;100.00
73429;BME280;61643;49.564;17.412;2024-03-02T03:47:47;97314.72;;;8.17;100.00
73429;BME280;61643;49.564;17.412;2024-03-02T03:50:13;97312.34;;;8.21;100.00
73429;BME280;61643;49.564;17.412;2024-03-02T03:52:39;97307.50;;;8.23;100.00
73429;BME280;61643;49.564;17.412;2024-03-02T03:55:05;97321.75;;;8.28;100.00
73429;BME280;61643;49.564;17.412;2024-03-02T03:57:31;97311.00;;;8.23;100.00
73429;BME280;61643;49.564;17.412;2024-03-02T03:59:57;97322.84;;;8.32;100.00
73429;BME280;61643;49.564;17.412;2024-03-02T04:02:23;97312.66;;;8.34;100.00
73429;BME280;61643;49.564;17.412;2024-03-02T04:04:50;97314.28;;;8.35;100.00
73429;BME280;61643;49.564;17.412;2024-03-02T04:07:16;97316.69;;;8.37;100.00
73429;BME280;61643;49.564;17.412;2024-03-02T04:09:42;97308.38;;;8.33;100.00
73429;BME280;61643;49.564;17.412;2024-03-02T04:12:08;97324.50;;;8.49;100.00
73429;BME280;61643;49.564;17.412;2024-03-02T04:14:34;97307.03;;;8.41;100.00
73429;BME280;61643;49.564;17.412;2024-03-02T04:17:00;97319.13;;;8.49;100.00
73429;BME280;61643;49.564;17.412;2024-03-02T04:19:26;97308.09;;;8.40;100.00
73429;BME280;61643;49.564;17.412;2024-03-02T04:21:52;97307.56;;;8.43;100.00
73429;BME280;61643;49.564;17.412;2024-03-02T04:24:18;97323.69;;;8.48;100.00
73429;BME280;61643;49.564;17.412;2024-03-02T04:26:44;97323.66;;;8.43;100.00
73429;BME280;61643;49.564;17.412;2024-03-02T04:29:10;97323.06;;;8.26;100.00
73429;BME280;61643;49.564;17.412;2024-03-02T04:31:36;97331.31;;;8.14;100.00
73429;BME280;61643;49.564;17.412;2024-03-02T04:34:02;97328.88;;;8.03;100.00
73429;BME280;61643;49.564;17.412;2024-03-02T04:36:28;97332.31;;;7.93;100.00
73429;BME280;61643;49.564;17.412;2024-03-02T04:38:54;97347.56;;;7.87;100.00
73429;BME280;61643;49.564;17.412;2024-03-02T04:41:20;97341.59;;;7.75;100.00
73429;BME280;61643;49.564;17.412;2024-03-02T04:43:46;97352.59;;;7.74;100.00
73429;BME280;61643;49.564;17.412;2024-03-02T04:46:12;97338.38;;;7.78;100.00
73429;BME280;61643;49.564;17.412;2024-03-02T04:48:38;97337.09;;;7.86;100.00
73429;BME280;61643;49.564;17.412;2024-03-02T04:51:04;97335.78;;;7.93;100.00
73429;BME280;61643;49.564;17.412;2024-03-02T04:53:30;97333.97;;;7.99;100.00
73429;BME280;61643;49.564;17.412;2024-03-02T04:55:56;97339.34;;;8.09;100.00
73429;BME280;61643;49.564;17.412;2024-03-02T04:58:40;97342.78;;;8.00;100.00
73429;BME280;61643;49.564;17.412;2024-03-02T05:01:06;97338.16;;;7.85;100.00
73429;BME280;61643;49.564;17.412;2024-03-02T05:03:32;97338.38;;;7.73;100.00
73429;BME280;61643;49.564;17.412;2024-03-02T05:06:00;97347.16;;;7.64;100.00
73429;BME280;61643;49.564;17.412;2024-03-02T05:08:26;97335.00;;;7.46;100.00
73429;BME280;61643;49.564;17.412;2024-03-02T05:10:52;97348.41;;;7.51;100.00
73429;BME280;61643;49.564;17.412;2024-03-02T05:13:18;97351.91;;;7.57;100.00
73429;BME280;61643;49.564;17.412;2024-03-02T05:15:44;97362.22;;;7.75;100.00
73429;BME280;61643;49.564;17.412;2024-03-02T05:18:10;97354.22;;;7.80;100.00
73429;BME280;61643;49.564;17.412;2024-03-02T05:20:36;97346.19;;;7.85;100.00
73429;BME280;61643;49.564;17.412;2024-03-02T05:23:02;97335.47;;;7.85;100.00
73429;BME280;61643;49.564;17.412;2024-03-02T05:25:28;97356.97;;;8.00;100.00
73429;BME280;61643;49.564;17.412;2024-03-02T05:27:54;97355.16;;;8.06;100.00
73429;BME280;61643;49.564;17.412;2024-03-02T05:30:20;97340.41;;;8.08;100.00
73429;BME280;61643;49.564;17.412;2024-03-02T05:32:46;97349.53;;;8.12;100.00
73429;BME280;61643;49.564;17.412;2024-03-02T05:35:12;97341.50;;;8.12;100.00
73429;BME280;61643;49.564;17.412;2024-03-02T05:37:38;97337.97;;;8.07;100.00
73429;BME280;61643;49.564;17.412;2024-03-02T05:40:05;97347.41;;;8.14;100.00
73429;BME280;61643;49.564;17.412;2024-03-02T05:42:31;97345.00;;;8.18;100.00
73429;BME280;61643;49.564;17.412;2024-03-02T05:44:57;97364.13;;;8.31;100.00
73429;BME280;61643;49.564;17.412;2024-03-02T05:47:23;97365.47;;;8.34;100.00
73429;BME280;61643;49.564;17.412;2024-03-02T05:49:49;97377.53;;;8.36;100.00
73429;BME280;61643;49.564;17.412;2024-03-02T05:52:15;97380.75;;;8.33;100.00
73429;BME280;61643;49.564;17.412;2024-03-02T05:54:41;97355.19;;;8.16;100.00
73429;BME280;61643;49.564;17.412;2024-03-02T05:57:07;97374.19;;;8.14;100.00
73429;BME280;61643;49.564;17.412;2024-03-02T06:00:08;97382.19;;;8.04;100.00
73429;BME280;61643;49.564;17.412;2024-03-02T06:02:34;97377.84;;;7.93;100.00
73429;BME280;61643;49.564;17.412;2024-03-02T06:05:01;97389.38;;;7.88;100.00
73429;BME280;61643;49.564;17.412;2024-03-02T06:07:26;97388.00;;;7.86;100.00
73429;BME280;61643;49.564;17.412;2024-03-02T06:09:52;97388.50;;;7.83;100.00
73429;BME280;61643;49.564;17.412;2024-03-02T06:12:18;97375.59;;;7.75;100.00
73429;BME280;61643;49.564;17.412;2024-03-02T06:14:44;97373.44;;;7.72;100.00
73429;BME280;61643;49.564;17.412;2024-03-02T06:17:10;97390.91;;;7.79;100.00
73429;BME280;61643;49.564;17.412;2024-03-02T06:19:36;97392.78;;;7.79;100.00
73429;BME280;61643;49.564;17.412;2024-03-02T06:22:02;97387.41;;;7.74;100.00
73429;BME280;61643;49.564;17.412;2024-03-02T06:24:29;97394.34;;;7.75;100.00
73429;BME280;61643;49.564;17.412;2024-03-02T06:26:55;97389.28;;;7.73;100.00
73429;BME280;61643;49.564;17.412;2024-03-02T06:29:21;97392.19;;;7.72;100.00
73429;BME280;61643;49.564;17.412;2024-03-02T06:31:47;97396.44;;;7.68;100.00
73429;BME280;61643;49.564;17.412;2024-03-02T06:34:13;97393.25;;;7.66;100.00
73429;BME280;61643;49.564;17.412;2024-03-02T06:36:39;97382.47;;;7.61;100.00
73429;BME280;61643;49.564;17.412;2024-03-02T06:39:06;97393.81;;;7.73;100.00
73429;BME280;61643;49.564;17.412;2024-03-02T06:41:33;97396.22;;;7.74;100.00
73429;BME280;61643;49.564;17.412;2024-03-02T06:43:59;97390.66;;;7.81;100.00
73429;BME280;61643;49.564;17.412;2024-03-02T06:46:25;97387.16;;;7.80;100.00
73429;BME280;61643;49.564;17.412;2024-03-02T06:48:51;97394.97;;;7.87;100.00
73429;BME280;61643;49.564;17.412;2024-03-02T06:51:17;97393.13;;;7.92;100.00
73429;BME280;61643;49.564;17.412;2024-03-02T06:53:43;97393.47;;;8.06;100.00
73429;BME280;61643;49.564;17.412;2024-03-02T06:56:09;97393.53;;;8.16;100.00
73429;BME280;61643;49.564;17.412;2024-03-02T06:58:35;97390.59;;;8.23;100.00
73429;BME280;61643;49.564;17.412;2024-03-02T07:01:01;97400.63;;;8.37;100.00
73429;BME280;61643;49.564;17.412;2024-03-02T07:03:27;97402.75;;;8.40;100.00
73429;BME280;61643;49.564;17.412;2024-03-02T07:05:53;97404.13;;;8.48;100.00
73429;BME280;61643;49.564;17.412;2024-03-02T07:08:19;97393.13;;;8.45;100.00
73429;BME280;61643;49.564;17.412;2024-03-02T07:10:45;97410.88;;;8.56;100.00
73429;BME280;61643;49.564;17.412;2024-03-02T07:13:15;97420.28;;;8.63;100.00
73429;BME280;61643;49.564;17.412;2024-03-02T07:15:41;97422.47;;;8.71;100.00
73429;BME280;61643;49.564;17.412;2024-03-02T07:18:28;97420.34;;;8.78;100.00
73429;BME280;61643;49.564;17.412;2024-03-02T07:20:54;97420.06;;;8.90;100.00
73429;BME280;61643;49.564;17.412;2024-03-02T07:23:21;97427.09;;;9.06;100.00
73429;BME280;61643;49.564;17.412;2024-03-02T07:25:53;97429.53;;;9.18;100.00
73429;BME280;61643;49.564;17.412;2024-03-02T07:28:23;97414.25;;;9.18;100.00
73429;BME280;61643;49.564;17.412;2024-03-02T07:33:24;97425.53;;;9.35;100.00
73429;BME280;61643;49.564;17.412;2024-03-02T07:35:51;97433.03;;;9.49;100.00
73429;BME280;61643;49.564;17.412;2024-03-02T07:38:17;97433.31;;;9.47;100.00
73429;BME280;61643;49.564;17.412;2024-03-02T07:40:43;97431.97;;;9.50;100.00
73429;BME280;61643;49.564;17.412;2024-03-02T07:43:09;97433.84;;;9.49;100.00
73429;BME280;61643;49.564;17.412;2024-03-02T07:45:35;97444.88;;;9.48;100.00
73429;BME280;61643;49.564;17.412;2024-03-02T07:48:02;97442.97;;;9.48;100.00
73429;BME280;61643;49.564;17.412;2024-03-02T07:50:29;97432.50;;;9.42;100.00
73429;BME280;61643;49.564;17.412;2024-03-02T07:53:01;97446.47;;;9.49;100.00
73429;BME280;61643;49.564;17.412;2024-03-02T07:55:27;97444.34;;;9.51;100.00
73429;BME280;61643;49.564;17.412;2024-03-02T07:57:53;97452.91;;;9.53;100.00
73429;BME280;61643;49.564;17.412;2024-03-02T08:00:19;97444.88;;;9.48;100.00
73429;BME280;61643;49.564;17.412;2024-03-02T08:02:45;97443.25;;;9.52;100.00
73429;BME280;61643;49.564;17.412;2024-03-02T08:05:11;97447.81;;;9.61;100.00
73429;BME280;61643;49.564;17.412;2024-03-02T08:07:37;97454.00;;;9.67;100.00
73429;BME280;61643;49.564;17.412;2024-03-02T08:10:03;97444.59;;;9.69;100.00
73429;BME280;61643;49.564;17.412;2024-03-02T08:12:29;97446.47;;;9.74;100.00
73429;BME280;61643;49.564;17.412;2024-03-02T08:14:55;97450.50;;;9.76;100.00
73429;BME280;61643;49.564;17.412;2024-03-02T08:17:21;97456.41;;;9.83;100.00
73429;BME280;61643;49.564;17.412;2024-03-02T08:19:47;97452.38;;;9.86;100.00
73429;BME280;61643;49.564;17.412;2024-03-02T08:22:15;97449.97;;;9.95;100.00
73429;BME280;61643;49.564;17.412;2024-03-02T08:24:41;97441.63;;;9.91;100.00
73429;BME280;61643;49.564;17.412;2024-03-02T08:27:07;97459.63;;;10.01;100.00
73429;BME280;61643;49.564;17.412;2024-03-02T08:29:33;97444.31;;;10.01;100.00
73429;BME280;61643;49.564;17.412;2024-03-02T08:31:59;97449.38;;;10.13;100.00
73429;BME280;61643;49.564;17.412;2024-03-02T08:34:24;97431.94;;;10.05;100.00
73429;BME280;61643;49.564;17.412;2024-03-02T08:36:50;97455.28;;;10.25;100.00
73429;BME280;61643;49.564;17.412;2024-03-02T08:39:17;97457.69;;;10.31;100.00
73429;BME280;61643;49.564;17.412;2024-03-02T08:41:45;97456.06;;;10.41;100.00
73429;BME280;61643;49.564;17.412;2024-03-02T08:44:12;97453.91;;;10.43;100.00
73429;BME280;61643;49.564;17.412;2024-03-02T08:46:39;97458.44;;;10.52;100.00
73429;BME280;61643;49.564;17.412;2024-03-02T08:49:05;97456.78;;;10.56;100.00
73429;BME280;61643;49.564;17.412;2024-03-02T08:51:31;97463.78;;;10.62;100.00
73429;BME280;61643;49.564;17.412;2024-03-02T08:53:58;97453.53;;;10.64;100.00
73429;BME280;61643;49.564;17.412;2024-03-02T08:56:24;97457.34;;;10.63;100.00
73429;BME280;61643;49.564;17.412;2024-03-02T08:58:51;97456.50;;;10.68;100.00
73429;BME280;61643;49.564;17.412;2024-03-02T09:01:18;97450.84;;;10.69;100.00
73429;BME280;61643;49.564;17.412;2024-03-02T09:03:45;97455.41;;;10.74;100.00
73429;BME280;61643;49.564;17.412;2024-03-02T09:06:13;97457.78;;;10.80;100.00
73429;BME280;61643;49.564;17.412;2024-03-02T09:08:39;97451.88;;;10.78;100.00
73429;BME280;61643;49.564;17.412;2024-03-02T09:11:06;97449.97;;;10.84;100.00
73429;BME280;61643;49.564;17.412;2024-03-02T09:13:33;97458.81;;;10.90;100.00
73429;BME280;61643;49.564;17.412;2024-03-02T09:15:59;97459.88;;;10.99;100.00
73429;BME280;61643;49.564;17.412;2024-03-02T09:18:25;97442.97;;;10.88;100.00
73429;BME280;61643;49.564;17.412;2024-03-02T09:20:51;97459.06;;;10.98;100.00
73429;BME280;61643;49.564;17.412;2024-03-02T09:23:17;97456.34;;;10.98;100.00
73429;BME280;61643;49.564;17.412;2024-03-02T09:25:43;97462.81;;;11.02;100.00
73429;BME280;61643;49.564;17.412;2024-03-02T09:28:10;97443.47;;;10.90;100.00
73429;BME280;61643;49.564;17.412;2024-03-02T09:30:36;97460.13;;;10.97;100.00
73429;BME280;61643;49.564;17.412;2024-03-02T09:33:03;97459.03;;;11.03;100.00
73429;BME280;61643;49.564;17.412;2024-03-02T09:35:29;97457.13;;;11.04;100.00
73429;BME280;61643;49.564;17.412;2024-03-02T09:37:55;97465.44;;;11.12;100.00
73429;BME280;61643;49.564;17.412;2024-03-02T09:40:22;97459.53;;;11.10;100.00
73429;BME280;61643;49.564;17.412;2024-03-02T09:42:48;97460.03;;;11.17;100.00
73429;BME280;61643;49.564;17.412;2024-03-02T09:45:24;97472.13;;;11.20;100.00
73429;BME280;61643;49.564;17.412;2024-03-02T09:47:50;97464.81;;;11.25;100.00
73429;BME280;61643;49.564;17.412;2024-03-02T09:50:16;97464.81;;;11.25;100.00
73429;BME280;61643;49.564;17.412;2024-03-02T09:52:43;97461.00;;;11.31;100.00
73429;BME280;61643;49.564;17.412;2024-03-02T09:55:09;97467.16;;;11.37;100.00
73429;BME280;61643;49.564;17.412;2024-03-02T09:57:35;97463.09;;;11.40;100.00
73429;BME280;61643;49.564;17.412;2024-03-02T10:00:01;97456.31;;;11.47;100.00
73429;BME280;61643;49.564;17.412;2024-03-02T10:02:27;97445.28;;;11.44;100.00
73429;BME280;61643;49.564;17.412;2024-03-02T10:04:53;97465.94;;;11.58;100.00
73429;BME280;61643;49.564;17.412;2024-03-02T10:07:19;97468.06;;;11.61;100.00
73429;BME280;61643;49.564;17.412;2024-03-02T10:09:47;97461.31;;;11.64;100.00
73429;BME280;61643;49.564;17.412;2024-03-02T10:12:15;97461.53;;;11.72;100.00
73429;BME280;61643;49.564;17.412;2024-03-02T10:14:41;97463.44;;;11.72;100.00
73429;BME280;61643;49.564;17.412;2024-03-02T10:17:13;97461.78;;;11.76;100.00
73429;BME280;61643;49.564;17.412;2024-03-02T10:19:41;97456.09;;;11.77;100.00
73429;BME280;61643;49.564;17.412;2024-03-02T10:22:09;97460.59;;;11.87;100.00
73429;BME280;61643;49.564;17.412;2024-03-02T10:24:39;97458.94;;;11.91;100.00
73429;BME280;61643;49.564;17.412;2024-03-02T10:27:10;97458.13;;;11.91;100.00
73429;BME280;61643;49.564;17.412;2024-03-02T10:29:40;97458.31;;;12.04;100.00
73429;BME280;61643;49.564;17.412;2024-03-02T10:32:10;97454.56;;;12.00;100.00
73429;BME280;61643;49.564;17.412;2024-03-02T10:34:44;97455.53;;;12.09;100.00
73429;BME280;61643;49.564;17.412;2024-03-02T10:37:11;97453.94;;;12.08;100.00
73429;BME280;61643;49.564;17.412;2024-03-02T10:39:38;97444.75;;;12.09;100.00
73429;BME280;61643;49.564;17.412;2024-03-02T10:42:08;97452.22;;;12.17;100.00
73429;BME280;61643;49.564;17.412;2024-03-02T10:44:34;97454.69;;;12.14;100.00
73429;BME280;61643;49.564;17.412;2024-03-02T10:47:02;97452.28;;;12.12;100.00
73429;BME280;61643;49.564;17.412;2024-03-02T10:49:30;97448.00;;;12.11;100.00
73429;BME280;61643;49.564;17.412;2024-03-02T10:52:00;97453.31;;;12.16;100.00
73429;BME280;61643;49.564;17.412;2024-03-02T10:54:27;97453.03;;;12.18;100.00
73429;BME280;61643;49.564;17.412;2024-03-02T10:56:58;97457.06;;;12.20;100.00
73429;BME280;61643;49.564;17.412;2024-03-02T10:59:27;97456.47;;;12.23;100.00
73429;BME280;61643;49.564;17.412;2024-03-02T11:01:58;97449.50;;;12.22;100.00
73429;BME280;61643;49.564;17.412;2024-03-02T11:04:29;97458.59;;;12.26;100.00
73429;BME280;61643;49.564;17.412;2024-03-02T11:07:03;97448.91;;;12.25;100.00
73429;BME280;61643;49.564;17.412;2024-03-02T11:09:33;97447.81;;;12.26;100.00
73429;BME280;61643;49.564;17.412;2024-03-02T11:14:31;97448.63;;;12.27;100.00
73429;BME280;61643;49.564;17.412;2024-03-02T11:17:02;97456.72;;;12.27;100.00
73429;BME280;61643;49.564;17.412;2024-03-02T11:19:29;97459.06;;;12.33;100.00
73429;BME280;61643;49.564;17.412;2024-03-02T11:21:56;97457.47;;;12.32;100.00
73429;BME280;61643;49.564;17.412;2024-03-02T11:27:02;97454.53;;;12.29;100.00
73429;BME280;61643;49.564;17.412;2024-03-02T11:32:03;97443.09;;;12.13;100.00
73429;BME280;61643;49.564;17.412;2024-03-02T11:34:33;97444.13;;;12.17;100.00
73429;BME280;61643;49.564;17.412;2024-03-02T11:37:03;97441.44;;;12.17;100.00
73429;BME280;61643;49.564;17.412;2024-03-02T11:39:30;97439.31;;;12.14;100.00
73429;BME280;61643;49.564;17.412;2024-03-02T11:41:57;97455.50;;;12.14;100.00
73429;BME280;61643;49.564;17.412;2024-03-02T11:44:27;97457.91;;;12.16;100.00
73429;BME280;61643;49.564;17.412;2024-03-02T11:47:05;97454.50;;;12.05;100.00
73429;BME280;61643;49.564;17.412;2024-03-02T11:49:39;97449.97;;;12.01;100.00
73429;BME280;61643;49.564;17.412;2024-03-02T11:52:06;97459.31;;;12.08;100.00
73429;BME280;61643;49.564;17.412;2024-03-02T11:54:37;97446.47;;;12.00;100.00
73429;BME280;61643;49.564;17.412;2024-03-02T11:57:16;97446.81;;;11.94;100.00
73429;BME280;61643;49.564;17.412;2024-03-02T11:59:43;97452.97;;;11.94;100.00
73429;BME280;61643;49.564;17.412;2024-03-02T12:02:17;97450.53;;;11.98;100.00
73429;BME280;61643;49.564;17.412;2024-03-02T12:04:44;97461.00;;;12.04;100.00
73429;BME280;61643;49.564;17.412;2024-03-02T12:07:24;97459.66;;;12.02;100.00
73429;BME280;61643;49.564;17.412;2024-03-02T12:10:08;97455.69;;;11.94;100.00
73429;BME280;61643;49.564;17.412;2024-03-02T12:12:46;97456.78;;;11.93;100.00
73429;BME280;61643;49.564;17.412;2024-03-02T12:15:13;97462.13;;;11.98;100.00
73429;BME280;61643;49.564;17.412;2024-03-02T12:17:40;97439.34;;;11.80;100.00
73429;BME280;61643;49.564;17.412;2024-03-02T12:20:07;97428.91;;;11.74;100.00
73429;BME280;61643;49.564;17.412;2024-03-02T12:22:38;97437.00;;;11.74;100.00
73429;BME280;61643;49.564;17.412;2024-03-02T12:25:07;97441.88;;;11.67;100.00
73429;BME280;61643;49.564;17.412;2024-03-02T12:27:34;97453.44;;;11.72;100.00
73429;BME280;61643;49.564;17.412;2024-03-02T12:30:05;97460.19;;;11.75;100.00
73429;BME280;61643;49.564;17.412;2024-03-02T12:32:37;97450.78;;;11.67;100.00
73429;BME280;61643;49.564;17.412;2024-03-02T12:35:16;97462.88;;;11.70;100.00
73429;BME280;61643;49.564;17.412;2024-03-02T12:37:48;97458.06;;;11.67;100.00
73429;BME280;61643;49.564;17.412;2024-03-02T12:40:17;97446.78;;;11.60;100.00
73429;BME280;61643;49.564;17.412;2024-03-02T12:43:08;97452.75;;;11.57;100.00
73429;BME280;61643;49.564;17.412;2024-03-02T12:45:41;97455.94;;;11.59;100.00
73429;BME280;61643;49.564;17.412;2024-03-02T12:48:14;97460.28;;;11.60;100.00
73429;BME280;61643;49.564;17.412;2024-03-02T12:50:47;97458.97;;;11.52;100.00
73429;BME280;61643;49.564;17.412;2024-03-02T12:53:17;97442.88;;;11.42;100.00
73429;BME280;61643;49.564;17.412;2024-03-02T12:55:47;97450.44;;;11.40;100.00
73429;BME280;61643;49.564;17.412;2024-03-02T12:58:21;97456.63;;;11.41;100.00